sensor_id;sensor_type;location;lat;lon;timestamp;temperature;humidity
29551;DHT22;16488;52.396;10.696;2023-02-13T00:00:32;6.90;99.90
29551;DHT22;16488;52.396;10.696;2023-02-13T00:02:57;6.80;99.90
29551;DHT22;16488;52.396;10.696;2023-02-13T00:05:23;6.80;99.90
29551;DHT22;16488;52.396;10.696;2023-02-13T00:07:49;6.90;99.90
29551;DHT22;16488;52.396;10.696;2023-02-13T00:10:14;6.90;99.90
29551;DHT22;16488;52.396;10.696;2023-02-13T00:12:40;6.90;99.90
29551;DHT22;16488;52.396;10.696;2023-02-13T00:15:07;6.80;99.90
29551;DHT22;16488;52.396;10.696;2023-02-13T00:17:32;6.80;99.90
29551;DHT22;16488;52.396;10.696;2023-02-13T00:19:58;6.80;99.90
29551;DHT22;16488;52.396;10.696;2023-02-13T00:22:24;6.70;99.90
29551;DHT22;16488;52.396;10.696;2023-02-13T00:24:50;6.80;99.90
29551;DHT22;16488;52.396;10.696;2023-02-13T00:27:15;6.80;99.90
29551;DHT22;16488;52.396;10.696;2023-02-13T00:29:41;6.70;99.90
29551;DHT22;16488;52.396;10.696;2023-02-13T00:32:07;6.80;99.90
29551;DHT22;16488;52.396;10.696;2023-02-13T00:34:32;6.70;99.90
29551;DHT22;16488;52.396;10.696;2023-02-13T00:36:58;6.70;99.90
29551;DHT22;16488;52.396;10.696;2023-02-13T00:39:24;6.70;99.90
29551;DHT22;16488;52.396;10.696;2023-02-13T00:41:49;6.70;99.90
29551;DHT22;16488;52.396;10.696;2023-02-13T00:44:15;6.70;99.90
29551;DHT22;16488;52.396;10.696;2023-02-13T00:46:41;6.70;99.90
29551;DHT22;16488;52.396;10.696;2023-02-13T00:49:06;6.70;99.90
29551;DHT22;16488;52.396;10.696;2023-02-13T00:51:32;6.70;99.90
29551;DHT22;16488;52.396;10.696;2023-02-13T00:53:57;6.70;99.90
29551;DHT22;16488;52.396;10.696;2023-02-13T00:56:23;6.70;99.90
29551;DHT22;16488;52.396;10.696;2023-02-13T00:58:49;6.80;99.90
29551;DHT22;16488;52.396;10.696;2023-02-13T01:01:14;6.70;99.90
29551;DHT22;16488;52.396;10.696;2023-02-13T01:03:40;6.70;99.90
29551;DHT22;16488;52.396;10.696;2023-02-13T01:06:06;6.70;99.90
29551;DHT22;16488;52.396;10.696;2023-02-13T01:08:32;6.70;99.90
29551;DHT22;16488;52.396;10.696;2023-02-13T01:10:58;6.70;99.90
29551;DHT22;16488;52.396;10.696;2023-02-13T01:13:25;6.70;99.90
29551;DHT22;16488;52.396;10.696;2023-02-13T01:15:51;6.70;99.90
29551;DHT22;16488;52.396;10.696;2023-02-13T01:18:18;6.70;99.90
29551;DHT22;16488;52.396;10.696;2023-02-13T01:20:44;6.70;99.90
29551;DHT22;16488;52.396;10.696;2023-02-13T01:23:11;6.70;99.90
29551;DHT22;16488;52.396;10.696;2023-02-13T01:25:40;6.70;99.90
29551;DHT22;16488;52.396;10.696;2023-02-13T01:28:06;6.70;99.90
29551;DHT22;16488;52.396;10.696;2023-02-13T01:30:32;6.70;99.90
29551;DHT22;16488;52.396;10.696;2023-02-13T01:32:57;6.70;99.90
29551;DHT22;16488;52.396;10.696;2023-02-13T01:35:23;6.70;99.90
29551;DHT22;16488;52.396;10.696;2023-02-13T01:37:49;6.80;99.90
29551;DHT22;16488;52.396;10.696;2023-02-13T01:40:14;6.80;99.90
29551;DHT22;16488;52.396;10.696;2023-02-13T01:42:41;6.70;99.90
29551;DHT22;16488;52.396;10.696;2023-02-13T01:48:00;6.80;99.90
29551;DHT22;16488;52.396;10.696;2023-02-13T01:50:36;6.80;99.90
29551;DHT22;16488;52.396;10.696;2023-02-13T01:53:06;6.80;99.90
29551;DHT22;16488;52.396;10.696;2023-02-13T01:55:34;6.70;99.90
29551;DHT22;16488;52.396;10.696;2023-02-13T01:58:07;6.70;99.90
29551;DHT22;16488;52.396;10.696;2023-02-13T02:00:34;6.60;99.90
29551;DHT22;16488;52.396;10.696;2023-02-13T02:03:11;6.60;99.90
29551;DHT22;16488;52.396;10.696;2023-02-13T02:05:38;6.70;99.90
29551;DHT22;16488;52.396;10.696;2023-02-13T02:08:06;6.70;99.90
29551;DHT22;16488;52.396;10.696;2023-02-13T02:10:33;6.60;99.90
29551;DHT22;16488;52.396;10.696;2023-02-13T02:13:14;6.60;99.90
29551;DHT22;16488;52.396;10.696;2023-02-13T02:15:41;6.60;99.90
29551;DHT22;16488;52.396;10.696;2023-02-13T02:18:16;6.50;99.90
29551;DHT22;16488;52.396;10.696;2023-02-13T02:37:25;6.60;99.90
29551;DHT22;16488;52.396;10.696;2023-02-13T02:46:07;6.60;99.90
29551;DHT22;16488;52.396;10.696;2023-02-13T02:48:54;6.50;99.90
29551;DHT22;16488;52.396;10.696;2023-02-13T02:51:58;6.60;99.90
29551;DHT22;16488;52.396;10.696;2023-02-13T02:54:45;6.50;99.90
29551;DHT22;16488;52.396;10.696;2023-02-13T02:57:31;6.50;99.90
29551;DHT22;16488;52.396;10.696;2023-02-13T03:00:18;6.60;99.90
29551;DHT22;16488;52.396;10.696;2023-02-13T03:03:04;6.60;99.90
29551;DHT22;16488;52.396;10.696;2023-02-13T03:05:53;6.50;99.90
29551;DHT22;16488;52.396;10.696;2023-02-13T03:08:54;6.50;99.90
29551;DHT22;16488;52.396;10.696;2023-02-13T03:11:41;6.40;99.90
29551;DHT22;16488;52.396;10.696;2023-02-13T03:14:27;6.40;99.90
29551;DHT22;16488;52.396;10.696;2023-02-13T03:16:55;6.50;99.90
29551;DHT22;16488;52.396;10.696;2023-02-13T03:25:25;6.60;99.90
29551;DHT22;16488;52.396;10.696;2023-02-13T03:28:39;6.50;99.90
29551;DHT22;16488;52.396;10.696;2023-02-13T03:33:57;6.60;99.90
29551;DHT22;16488;52.396;10.696;2023-02-13T03:39:30;6.60;99.90
29551;DHT22;16488;52.396;10.696;2023-02-13T03:42:17;6.60;99.90
29551;DHT22;16488;52.396;10.696;2023-02-13T03:45:12;6.60;99.90
29551;DHT22;16488;52.396;10.696;2023-02-13T03:47:59;6.50;99.90
29551;DHT22;16488;52.396;10.696;2023-02-13T03:50:26;6.60;99.90
29551;DHT22;16488;52.396;10.696;2023-02-13T03:52:58;6.50;99.90
29551;DHT22;16488;52.396;10.696;2023-02-13T03:55:32;6.50;99.90
29551;DHT22;16488;52.396;10.696;2023-02-13T03:58:41;6.60;99.90
29551;DHT22;16488;52.396;10.696;2023-02-13T04:01:27;6.50;99.90
29551;DHT22;16488;52.396;10.696;2023-02-13T04:04:10;6.50;99.90
29551;DHT22;16488;52.396;10.696;2023-02-13T04:09:12;6.50;99.90
29551;DHT22;16488;52.396;10.696;2023-02-13T04:14:37;6.50;99.90
29551;DHT22;16488;52.396;10.696;2023-02-13T04:17:08;6.50;99.90
29551;DHT22;16488;52.396;10.696;2023-02-13T04:19:36;6.50;99.90
29551;DHT22;16488;52.396;10.696;2023-02-13T04:22:01;6.60;99.90
29551;DHT22;16488;52.396;10.696;2023-02-13T04:24:27;6.60;99.90
29551;DHT22;16488;52.396;10.696;2023-02-13T04:26:53;6.60;99.90
29551;DHT22;16488;52.396;10.696;2023-02-13T04:29:23;6.50;99.90
29551;DHT22;16488;52.396;10.696;2023-02-13T04:31:49;6.60;99.90
29551;DHT22;16488;52.396;10.696;2023-02-13T04:34:15;6.50;99.90
29551;DHT22;16488;52.396;10.696;2023-02-13T04:36:41;6.60;99.90
29551;DHT22;16488;52.396;10.696;2023-02-13T04:39:07;6.50;99.90
29551;DHT22;16488;52.396;10.696;2023-02-13T04:41:33;6.50;99.90
29551;DHT22;16488;52.396;10.696;2023-02-13T04:43:59;6.50;99.90
29551;DHT22;16488;52.396;10.696;2023-02-13T04:46:24;6.50;99.90
29551;DHT22;16488;52.396;10.696;2023-02-13T04:48:50;6.50;99.90
29551;DHT22;16488;52.396;10.696;2023-02-13T04:51:15;6.60;99.90
29551;DHT22;16488;52.396;10.696;2023-02-13T04:53:41;6.60;99.90
29551;DHT22;16488;52.396;10.696;2023-02-13T04:56:06;6.60;99.90
29551;DHT22;16488;52.396;10.696;2023-02-13T04:58:32;6.60;99.90
29551;DHT22;16488;52.396;10.696;2023-02-13T05:00:58;6.60;99.90
29551;DHT22;16488;52.396;10.696;2023-02-13T05:03:23;6.50;99.90
29551;DHT22;16488;52.396;10.696;2023-02-13T05:05:49;6.50;99.90
29551;DHT22;16488;52.396;10.696;2023-02-13T05:08:15;6.50;99.90
29551;DHT22;16488;52.396;10.696;2023-02-13T05:10:40;6.50;99.90
29551;DHT22;16488;52.396;10.696;2023-02-13T05:13:06;6.50;99.90
29551;DHT22;16488;52.396;10.696;2023-02-13T05:15:32;6.50;99.90
29551;DHT22;16488;52.396;10.696;2023-02-13T05:17:57;6.50;99.90
29551;DHT22;16488;52.396;10.696;2023-02-13T05:20:23;6.50;99.90
29551;DHT22;16488;52.396;10.696;2023-02-13T05:22:51;6.50;99.90
29551;DHT22;16488;52.396;10.696;2023-02-13T05:25:37;6.50;99.90
29551;DHT22;16488;52.396;10.696;2023-02-13T05:28:03;6.50;99.90
29551;DHT22;16488;52.396;10.696;2023-02-13T05:30:29;6.50;99.90
29551;DHT22;16488;52.396;10.696;2023-02-13T05:32:54;6.60;99.90
29551;DHT22;16488;52.396;10.696;2023-02-13T05:35:23;6.60;99.90
29551;DHT22;16488;52.396;10.696;2023-02-13T05:37:50;6.60;99.90
29551;DHT22;16488;52.396;10.696;2023-02-13T05:40:15;6.60;99.90
29551;DHT22;16488;52.396;10.696;2023-02-13T05:42:41;6.60;99.90
29551;DHT22;16488;52.396;10.696;2023-02-13T05:45:08;6.60;99.90
29551;DHT22;16488;52.396;10.696;2023-02-13T05:47:34;6.60;99.90
29551;DHT22;16488;52.396;10.696;2023-02-13T05:50:00;6.50;99.90
29551;DHT22;16488;52.396;10.696;2023-02-13T05:52:25;6.50;99.90
29551;DHT22;16488;52.396;10.696;2023-02-13T05:54:51;6.50;99.90
29551;DHT22;16488;52.396;10.696;2023-02-13T05:57:16;6.60;99.90
29551;DHT22;16488;52.396;10.696;2023-02-13T05:59:42;6.50;99.90
29551;DHT22;16488;52.396;10.696;2023-02-13T06:02:08;6.50;99.90
29551;DHT22;16488;52.396;10.696;2023-02-13T06:04:33;6.60;99.90
29551;DHT22;16488;52.396;10.696;2023-02-13T06:06:59;6.60;99.90
29551;DHT22;16488;52.396;10.696;2023-02-13T06:09:24;6.50;99.90
29551;DHT22;16488;52.396;10.696;2023-02-13T06:11:50;6.60;99.90
29551;DHT22;16488;52.396;10.696;2023-02-13T06:14:16;6.60;99.90
29551;DHT22;16488;52.396;10.696;2023-02-13T06:16:41;6.60;99.90
29551;DHT22;16488;52.396;10.696;2023-02-13T06:19:07;6.60;99.90
29551;DHT22;16488;52.396;10.696;2023-02-13T06:21:33;6.50;99.90
29551;DHT22;16488;52.396;10.696;2023-02-13T06:24:03;6.50;99.90
29551;DHT22;16488;52.396;10.696;2023-02-13T06:26:29;6.50;99.90
29551;DHT22;16488;52.396;10.696;2023-02-13T06:28:54;6.60;99.90
29551;DHT22;16488;52.396;10.696;2023-02-13T06:31:20;6.50;99.90
29551;DHT22;16488;52.396;10.696;2023-02-13T06:33:46;6.60;99.90
29551;DHT22;16488;52.396;10.696;2023-02-13T06:36:11;6.50;99.90
29551;DHT22;16488;52.396;10.696;2023-02-13T06:38:37;6.50;99.90
29551;DHT22;16488;52.396;10.696;2023-02-13T06:41:06;6.60;99.90
29551;DHT22;16488;52.396;10.696;2023-02-13T06:43:35;6.50;99.90
29551;DHT22;16488;52.396;10.696;2023-02-13T06:46:05;6.50;99.90
29551;DHT22;16488;52.396;10.696;2023-02-13T06:48:31;6.40;99.90
29551;DHT22;16488;52.396;10.696;2023-02-13T06:50:57;6.50;99.90
29551;DHT22;16488;52.396;10.696;2023-02-13T06:53:22;6.50;99.90
29551;DHT22;16488;52.396;10.696;2023-02-13T06:55:53;6.50;99.90
29551;DHT22;16488;52.396;10.696;2023-02-13T06:58:20;6.50;99.90
29551;DHT22;16488;52.396;10.696;2023-02-13T07:00:46;6.40;99.90
29551;DHT22;16488;52.396;10.696;2023-02-13T07:03:12;6.40;99.90
29551;DHT22;16488;52.396;10.696;2023-02-13T07:05:38;6.40;99.90
29551;DHT22;16488;52.396;10.696;2023-02-13T07:08:04;6.40;99.90
29551;DHT22;16488;52.396;10.696;2023-02-13T07:10:29;6.50;99.90
29551;DHT22;16488;52.396;10.696;2023-02-13T07:12:55;6.60;99.90
29551;DHT22;16488;52.396;10.696;2023-02-13T07:15:21;6.50;99.90
29551;DHT22;16488;52.396;10.696;2023-02-13T07:17:46;6.60;99.90
29551;DHT22;16488;52.396;10.696;2023-02-13T07:20:12;6.60;99.90
29551;DHT22;16488;52.396;10.696;2023-02-13T07:22:38;6.60;99.90
29551;DHT22;16488;52.396;10.696;2023-02-13T07:25:03;6.60;99.90
29551;DHT22;16488;52.396;10.696;2023-02-13T07:27:29;6.60;99.90
29551;DHT22;16488;52.396;10.696;2023-02-13T07:29:56;6.60;99.90
29551;DHT22;16488;52.396;10.696;2023-02-13T07:32:23;6.60;99.90
29551;DHT22;16488;52.396;10.696;2023-02-13T07:34:48;6.60;99.90
29551;DHT22;16488;52.396;10.696;2023-02-13T07:37:14;6.60;99.90
29551;DHT22;16488;52.396;10.696;2023-02-13T07:39:40;6.70;99.90
29551;DHT22;16488;52.396;10.696;2023-02-13T07:42:05;6.70;99.90
29551;DHT22;16488;52.396;10.696;2023-02-13T07:44:31;6.70;99.90
29551;DHT22;16488;52.396;10.696;2023-02-13T07:46:57;6.70;99.90
29551;DHT22;16488;52.396;10.696;2023-02-13T07:49:23;6.80;99.90
29551;DHT22;16488;52.396;10.696;2023-02-13T07:51:49;6.70;99.90
29551;DHT22;16488;52.396;10.696;2023-02-13T07:54:15;6.70;99.90
29551;DHT22;16488;52.396;10.696;2023-02-13T07:56:41;6.70;99.90
29551;DHT22;16488;52.396;10.696;2023-02-13T07:59:06;6.70;99.90
29551;DHT22;16488;52.396;10.696;2023-02-13T08:01:32;6.80;99.90
29551;DHT22;16488;52.396;10.696;2023-02-13T08:03:58;6.80;99.90
29551;DHT22;16488;52.396;10.696;2023-02-13T08:06:23;6.80;99.90
29551;DHT22;16488;52.396;10.696;2023-02-13T08:08:49;6.70;99.90
29551;DHT22;16488;52.396;10.696;2023-02-13T08:11:35;6.80;99.90
29551;DHT22;16488;52.396;10.696;2023-02-13T08:14:23;6.80;99.90
29551;DHT22;16488;52.396;10.696;2023-02-13T08:16:50;6.70;99.90
29551;DHT22;16488;52.396;10.696;2023-02-13T08:19:16;6.70;99.90
29551;DHT22;16488;52.396;10.696;2023-02-13T08:21:42;6.80;99.90
29551;DHT22;16488;52.396;10.696;2023-02-13T08:24:08;6.80;99.90
29551;DHT22;16488;52.396;10.696;2023-02-13T08:26:34;6.80;99.90
29551;DHT22;16488;52.396;10.696;2023-02-13T08:29:00;6.80;99.90
29551;DHT22;16488;52.396;10.696;2023-02-13T08:31:26;6.90;99.90
29551;DHT22;16488;52.396;10.696;2023-02-13T08:33:51;6.80;99.90
29551;DHT22;16488;52.396;10.696;2023-02-13T08:36:17;6.90;99.90
29551;DHT22;16488;52.396;10.696;2023-02-13T08:38:46;6.90;99.90
29551;DHT22;16488;52.396;10.696;2023-02-13T08:41:12;6.90;99.90
29551;DHT22;16488;52.396;10.696;2023-02-13T08:43:38;7.00;99.90
29551;DHT22;16488;52.396;10.696;2023-02-13T08:46:04;7.00;99.90
29551;DHT22;16488;52.396;10.696;2023-02-13T08:48:29;7.00;99.90
29551;DHT22;16488;52.396;10.696;2023-02-13T08:50:55;7.00;99.90
29551;DHT22;16488;52.396;10.696;2023-02-13T08:53:21;7.10;99.90
29551;DHT22;16488;52.396;10.696;2023-02-13T08:55:54;7.10;99.90
29551;DHT22;16488;52.396;10.696;2023-02-13T08:58:21;7.10;99.90
29551;DHT22;16488;52.396;10.696;2023-02-13T09:00:46;7.20;99.90
29551;DHT22;16488;52.396;10.696;2023-02-13T09:03:12;7.20;99.90
29551;DHT22;16488;52.396;10.696;2023-02-13T09:05:38;7.20;99.90
29551;DHT22;16488;52.396;10.696;2023-02-13T09:08:03;7.20;99.90
29551;DHT22;16488;52.396;10.696;2023-02-13T09:10:30;7.20;99.90
29551;DHT22;16488;52.396;10.696;2023-02-13T09:12:56;7.30;99.90
29551;DHT22;16488;52.396;10.696;2023-02-13T09:15:21;7.30;99.90
29551;DHT22;16488;52.396;10.696;2023-02-13T09:17:47;7.30;99.90
29551;DHT22;16488;52.396;10.696;2023-02-13T09:20:13;7.30;99.90
29551;DHT22;16488;52.396;10.696;2023-02-13T09:22:39;7.30;99.90
29551;DHT22;16488;52.396;10.696;2023-02-13T09:25:05;7.40;99.90
29551;DHT22;16488;52.396;10.696;2023-02-13T09:27:31;7.40;99.90
29551;DHT22;16488;52.396;10.696;2023-02-13T09:29:58;7.40;99.90
29551;DHT22;16488;52.396;10.696;2023-02-13T09:32:24;7.40;99.90
29551;DHT22;16488;52.396;10.696;2023-02-13T09:34:49;7.50;99.90
29551;DHT22;16488;52.396;10.696;2023-02-13T09:37:15;7.50;99.90
29551;DHT22;16488;52.396;10.696;2023-02-13T09:39:42;7.50;99.90
29551;DHT22;16488;52.396;10.696;2023-02-13T09:44:43;7.60;99.90
29551;DHT22;16488;52.396;10.696;2023-02-13T09:47:14;7.60;99.90
29551;DHT22;16488;52.396;10.696;2023-02-13T09:49:46;7.60;99.90
29551;DHT22;16488;52.396;10.696;2023-02-13T09:52:13;7.70;99.90
29551;DHT22;16488;52.396;10.696;2023-02-13T09:54:39;7.70;99.90
29551;DHT22;16488;52.396;10.696;2023-02-13T09:57:16;7.70;99.90
29551;DHT22;16488;52.396;10.696;2023-02-13T10:02:43;7.60;99.90
29551;DHT22;16488;52.396;10.696;2023-02-13T10:05:19;7.70;99.90
29551;DHT22;16488;52.396;10.696;2023-02-13T10:16:28;7.70;99.90
29551;DHT22;16488;52.396;10.696;2023-02-13T10:21:53;7.80;99.90
29551;DHT22;16488;52.396;10.696;2023-02-13T10:24:32;7.80;99.90
29551;DHT22;16488;52.396;10.696;2023-02-13T10:27:04;7.80;99.90
29551;DHT22;16488;52.396;10.696;2023-02-13T10:29:38;7.80;99.90
29551;DHT22;16488;52.396;10.696;2023-02-13T10:35:20;7.80;99.90
29551;DHT22;16488;52.396;10.696;2023-02-13T10:37:49;7.90;99.90
29551;DHT22;16488;52.396;10.696;2023-02-13T10:40:17;7.90;99.90
29551;DHT22;16488;52.396;10.696;2023-02-13T10:42:56;7.90;99.90
29551;DHT22;16488;52.396;10.696;2023-02-13T10:51:07;7.80;99.90
29551;DHT22;16488;52.396;10.696;2023-02-13T10:54:49;7.80;99.90
29551;DHT22;16488;52.396;10.696;2023-02-13T10:57:04;7.80;99.90
29551;DHT22;16488;52.396;10.696;2023-02-13T10:59:46;7.80;99.90
29551;DHT22;16488;52.396;10.696;2023-02-13T11:02:26;7.90;99.90
29551;DHT22;16488;52.396;10.696;2023-02-13T11:05:14;7.90;99.90
29551;DHT22;16488;52.396;10.696;2023-02-13T11:07:43;8.00;99.90
29551;DHT22;16488;52.396;10.696;2023-02-13T11:10:22;7.90;99.90
29551;DHT22;16488;52.396;10.696;2023-02-13T11:12:48;7.90;99.90
29551;DHT22;16488;52.396;10.696;2023-02-13T11:15:27;7.90;99.90
29551;DHT22;16488;52.396;10.696;2023-02-13T11:17:56;7.90;99.90
29551;DHT22;16488;52.396;10.696;2023-02-13T11:26:21;7.90;99.90
29551;DHT22;16488;52.396;10.696;2023-02-13T11:28:58;7.90;99.90
29551;DHT22;16488;52.396;10.696;2023-02-13T11:31:33;7.90;99.90
29551;DHT22;16488;52.396;10.696;2023-02-13T11:34:26;7.90;99.90
29551;DHT22;16488;52.396;10.696;2023-02-13T11:36:54;7.90;99.90
29551;DHT22;16488;52.396;10.696;2023-02-13T11:39:31;7.90;99.90
29551;DHT22;16488;52.396;10.696;2023-02-13T11:41:57;7.90;99.90
29551;DHT22;16488;52.396;10.696;2023-02-13T11:44:30;7.90;99.90
29551;DHT22;16488;52.396;10.696;2023-02-13T11:46:58;8.00;99.90
29551;DHT22;16488;52.396;10.696;2023-02-13T11:49:34;8.00;99.90
29551;DHT22;16488;52.396;10.696;2023-02-13T11:52:06;8.00;99.90
29551;DHT22;16488;52.396;10.696;2023-02-13T11:54:42;8.10;99.90
29551;DHT22;16488;52.396;10.696;2023-02-13T11:59:41;8.10;99.90
29551;DHT22;16488;52.396;10.696;2023-02-13T12:04:39;8.00;99.90
29551;DHT22;16488;52.396;10.696;2023-02-13T12:07:33;8.00;99.90
29551;DHT22;16488;52.396;10.696;2023-02-13T12:12:51;8.10;99.90
29551;DHT22;16488;52.396;10.696;2023-02-13T12:17:53;8.00;99.90
29551;DHT22;16488;52.396;10.696;2023-02-13T12:20:21;8.10;99.90
29551;DHT22;16488;52.396;10.696;2023-02-13T12:23:08;8.00;99.90
29551;DHT22;16488;52.396;10.696;2023-02-13T12:25:39;7.90;99.90
29551;DHT22;16488;52.396;10.696;2023-02-13T12:28:31;8.00;99.90
29551;DHT22;16488;52.396;10.696;2023-02-13T12:31:08;8.00;99.90
29551;DHT22;16488;52.396;10.696;2023-02-13T12:44:45;8.10;99.90
29551;DHT22;16488;52.396;10.696;2023-02-13T12:47:18;8.10;99.90
29551;DHT22;16488;52.396;10.696;2023-02-13T12:58:40;8.20;99.90
29551;DHT22;16488;52.396;10.696;2023-02-13T13:00:48;8.20;99.90
29551;DHT22;16488;52.396;10.696;2023-02-13T13:09:53;8.20;99.90
29551;DHT22;16488;52.396;10.696;2023-02-13T13:17:07;8.40;99.90
29551;DHT22;16488;52.396;10.696;2023-02-13T13:22:39;8.40;99.90
29551;DHT22;16488;52.396;10.696;2023-02-13T13:25:17;8.50;99.90
29551;DHT22;16488;52.396;10.696;2023-02-13T13:27:47;8.40;99.90
29551;DHT22;16488;52.396;10.696;2023-02-13T13:30:23;8.50;99.90
29551;DHT22;16488;52.396;10.696;2023-02-13T13:33:17;8.50;99.90
29551;DHT22;16488;52.396;10.696;2023-02-13T13:35:57;8.60;99.90
29551;DHT22;16488;52.396;10.696;2023-02-13T13:44:39;8.60;99.90
29551;DHT22;16488;52.396;10.696;2023-02-13T13:50:22;8.40;99.90
29551;DHT22;16488;52.396;10.696;2023-02-13T13:53:15;8.40;99.90
29551;DHT22;16488;52.396;10.696;2023-02-13T14:03:38;8.40;99.90
29551;DHT22;16488;52.396;10.696;2023-02-13T14:06:09;8.40;99.90
29551;DHT22;16488;52.396;10.696;2023-02-13T14:11:05;8.40;99.90
29551;DHT22;16488;52.396;10.696;2023-02-13T14:13:40;8.40;99.90
29551;DHT22;16488;52.396;10.696;2023-02-13T14:16:09;8.30;99.90
29551;DHT22;16488;52.396;10.696;2023-02-13T14:18:36;8.30;99.90
29551;DHT22;16488;52.396;10.696;2023-02-13T14:21:03;8.40;99.90
29551;DHT22;16488;52.396;10.696;2023-02-13T14:29:14;8.50;99.90
29551;DHT22;16488;52.396;10.696;2023-02-13T14:34:28;8.50;99.90
29551;DHT22;16488;52.396;10.696;2023-02-13T14:39:34;8.60;99.90
29551;DHT22;16488;52.396;10.696;2023-02-13T14:42:20;8.50;99.90
29551;DHT22;16488;52.396;10.696;2023-02-13T14:44:54;8.50;99.90
29551;DHT22;16488;52.396;10.696;2023-02-13T14:47:35;8.40;99.90
29551;DHT22;16488;52.396;10.696;2023-02-13T14:50:05;8.50;99.90
29551;DHT22;16488;52.396;10.696;2023-02-13T14:52:37;8.40;99.90
29551;DHT22;16488;52.396;10.696;2023-02-13T14:55:14;8.50;99.90
29551;DHT22;16488;52.396;10.696;2023-02-13T14:57:47;8.40;99.90
29551;DHT22;16488;52.396;10.696;2023-02-13T15:00:22;8.40;99.90
29551;DHT22;16488;52.396;10.696;2023-02-13T15:02:54;8.30;99.90
29551;DHT22;16488;52.396;10.696;2023-02-13T15:05:23;8.30;99.90
29551;DHT22;16488;52.396;10.696;2023-02-13T15:08:15;8.30;99.90
29551;DHT22;16488;52.396;10.696;2023-02-13T15:10:47;8.40;99.90
29551;DHT22;16488;52.396;10.696;2023-02-13T15:13:20;8.30;99.90
29551;DHT22;16488;52.396;10.696;2023-02-13T15:15:55;8.30;99.90
29551;DHT22;16488;52.396;10.696;2023-02-13T15:18:47;8.30;99.90
29551;DHT22;16488;52.396;10.696;2023-02-13T15:21:23;8.30;99.90
29551;DHT22;16488;52.396;10.696;2023-02-13T15:23:55;8.30;99.90
29551;DHT22;16488;52.396;10.696;2023-02-13T15:26:23;8.30;99.90
29551;DHT22;16488;52.396;10.696;2023-02-13T15:29:02;8.30;99.90
29551;DHT22;16488;52.396;10.696;2023-02-13T15:31:31;8.20;99.90
29551;DHT22;16488;52.396;10.696;2023-02-13T15:34:02;8.20;99.90
29551;DHT22;16488;52.396;10.696;2023-02-13T15:36:40;8.20;99.90
29551;DHT22;16488;52.396;10.696;2023-02-13T15:39:06;8.10;99.90
29551;DHT22;16488;52.396;10.696;2023-02-13T15:41:34;8.10;99.90
29551;DHT22;16488;52.396;10.696;2023-02-13T15:44:00;8.10;99.90
29551;DHT22;16488;52.396;10.696;2023-02-13T15:48:55;8.20;99.90
29551;DHT22;16488;52.396;10.696;2023-02-13T15:51:24;8.20;99.90
29551;DHT22;16488;52.396;10.696;2023-02-13T15:53:55;8.20;99.90
29551;DHT22;16488;52.396;10.696;2023-02-13T15:56:21;8.20;99.90
29551;DHT22;16488;52.396;10.696;2023-02-13T15:58:48;8.20;99.90
29551;DHT22;16488;52.396;10.696;2023-02-13T16:01:15;8.10;99.90
29551;DHT22;16488;52.396;10.696;2023-02-13T16:03:43;8.00;99.90
29551;DHT22;16488;52.396;10.696;2023-02-13T16:06:18;8.00;99.90
29551;DHT22;16488;52.396;10.696;2023-02-13T16:08:51;8.00;99.90
29551;DHT22;16488;52.396;10.696;2023-02-13T16:11:39;8.00;99.90
29551;DHT22;16488;52.396;10.696;2023-02-13T16:14:23;7.90;99.90
29551;DHT22;16488;52.396;10.696;2023-02-13T16:16:59;7.90;99.90
29551;DHT22;16488;52.396;10.696;2023-02-13T16:20:15;7.80;99.90
29551;DHT22;16488;52.396;10.696;2023-02-13T16:27:46;7.80;99.90
29551;DHT22;16488;52.396;10.696;2023-02-13T16:30:32;7.80;99.90
29551;DHT22;16488;52.396;10.696;2023-02-13T16:33:19;7.70;99.90
29551;DHT22;16488;52.396;10.696;2023-02-13T16:35:49;7.70;99.90
29551;DHT22;16488;52.396;10.696;2023-02-13T16:38:33;7.70;99.90
29551;DHT22;16488;52.396;10.696;2023-02-13T16:41:46;7.70;99.90
29551;DHT22;16488;52.396;10.696;2023-02-13T16:51:36;7.70;99.90
29551;DHT22;16488;52.396;10.696;2023-02-13T16:54:14;7.60;99.90
29551;DHT22;16488;52.396;10.696;2023-02-13T17:02:23;7.60;99.90
29551;DHT22;16488;52.396;10.696;2023-02-13T17:07:38;7.50;99.90
29551;DHT22;16488;52.396;10.696;2023-02-13T17:10:24;7.50;99.90
29551;DHT22;16488;52.396;10.696;2023-02-13T17:12:59;7.50;99.90
29551;DHT22;16488;52.396;10.696;2023-02-13T17:15:30;7.40;99.90
29551;DHT22;16488;52.396;10.696;2023-02-13T17:17:55;7.40;99.90
29551;DHT22;16488;52.396;10.696;2023-02-13T17:20:25;7.40;99.90
29551;DHT22;16488;52.396;10.696;2023-02-13T17:22:53;7.40;99.90
29551;DHT22;16488;52.396;10.696;2023-02-13T17:25:22;7.40;99.90
29551;DHT22;16488;52.396;10.696;2023-02-13T17:27:50;7.30;99.90
29551;DHT22;16488;52.396;10.696;2023-02-13T17:30:24;7.20;99.90
29551;DHT22;16488;52.396;10.696;2023-02-13T17:32:56;7.30;99.90
29551;DHT22;16488;52.396;10.696;2023-02-13T17:35:22;7.30;99.90
29551;DHT22;16488;52.396;10.696;2023-02-13T17:37:48;7.30;99.90
29551;DHT22;16488;52.396;10.696;2023-02-13T17:40:17;7.30;99.90
29551;DHT22;16488;52.396;10.696;2023-02-13T17:42:44;7.20;99.90
29551;DHT22;16488;52.396;10.696;2023-02-13T17:45:13;7.20;99.90
29551;DHT22;16488;52.396;10.696;2023-02-13T17:47:40;7.30;99.90
29551;DHT22;16488;52.396;10.696;2023-02-13T17:50:06;7.30;99.90
29551;DHT22;16488;52.396;10.696;2023-02-13T17:52:32;7.30;99.90
29551;DHT22;16488;52.396;10.696;2023-02-13T17:54:58;7.30;99.90
29551;DHT22;16488;52.396;10.696;2023-02-13T17:57:24;7.30;99.90
29551;DHT22;16488;52.396;10.696;2023-02-13T17:59:50;7.30;99.90
29551;DHT22;16488;52.396;10.696;2023-02-13T18:02:18;7.30;99.90
29551;DHT22;16488;52.396;10.696;2023-02-13T18:04:45;7.30;99.90
29551;DHT22;16488;52.396;10.696;2023-02-13T18:07:13;7.20;99.90
29551;DHT22;16488;52.396;10.696;2023-02-13T18:09:39;7.20;99.90
29551;DHT22;16488;52.396;10.696;2023-02-13T18:12:06;7.10;99.90
29551;DHT22;16488;52.396;10.696;2023-02-13T18:14:33;7.10;99.90
29551;DHT22;16488;52.396;10.696;2023-02-13T18:16:59;7.10;99.90
29551;DHT22;16488;52.396;10.696;2023-02-13T18:19:25;7.00;99.90
29551;DHT22;16488;52.396;10.696;2023-02-13T18:21:51;7.00;99.90
29551;DHT22;16488;52.396;10.696;2023-02-13T18:24:17;6.90;99.90
29551;DHT22;16488;52.396;10.696;2023-02-13T18:26:43;6.90;99.90
29551;DHT22;16488;52.396;10.696;2023-02-13T18:29:09;6.90;99.90
29551;DHT22;16488;52.396;10.696;2023-02-13T18:31:34;6.90;99.90
29551;DHT22;16488;52.396;10.696;2023-02-13T18:34:00;6.90;99.90
29551;DHT22;16488;52.396;10.696;2023-02-13T18:36:25;6.90;99.90
29551;DHT22;16488;52.396;10.696;2023-02-13T18:38:51;6.90;99.90
29551;DHT22;16488;52.396;10.696;2023-02-13T18:41:17;6.90;99.90
29551;DHT22;16488;52.396;10.696;2023-02-13T18:43:43;6.90;99.90